RJOI/IWA METAR and TAF weather

Enter ICAO airport designator
Station Type Date Time Source
RJOI METAR 2022/01/26 19:56 UTC NOAA

RJOI 261956Z 30006KT 9999 FEW030 BKN150 04/M02 A3017 RMK SLP217 T00391017


Station Type Date Time Source
RJOI Decoded METAR 2022/01/26 19:56 UTC NOAA

MCAS IWAKUNI,JAPAN, JA, Japan (RJOI) 34-09N 132-14E 5M
Jan 26, 2022 - 02:56 PM EST / 2022.01.26 1956 UTC
Wind: from the WNW (300 degrees) at 7 MPH (6 KT):0
Visibility: greater than 7 mile(s):0
Sky conditions: mostly cloudy
Temperature: 39.0 F (3.9 C)
Dew Point: 28.9 F (-1.7 C)
Relative Humidity: 66%
Pressure (altimeter): 30.17 in. Hg (1021 hPa)
ob: RJOI 261956Z 30006KT 9999 FEW030 BKN150 04/M02 A3017 RMK SLP217 T00391017
cycle: 20

Station Type Date Time Source
RJOI TAF 2022/01/26 21:54 UTC NOAA

TAF TAF RJOI 2621/2721 30006KT 9999 FEW030 BKN150 QNH3008INS 2705/2707 VRB06KT 9999 SCT030 BKN100 QNH3007INS
FM271200 30006KT 9999 FEW025 FEW080 QNH3007INS
FM271800 32006KT 9999 FEW020 SCT150 QNH3005INS T04/2621Z T10/2705Z

Example: see airport list